Terminal Aerodrome Forecast
Issued by NWS Spokane, WA

Home | Current Version | Previous Version | Text Only | Print | Product List | Glossary On
Versions: 1 2 3 4 5 6 7 8 9 10 11 12 13 14 15 16 17 18 19 20 21 22 23 24 25 26 27 28 29 30 31 32 33 34 35 36 37 38
000
FTUS46 KOTX 041750 CCA
TAFEAT
TAF COR
KEAT 041750Z 0418/0518 30009KT P6SM SKC
     FM041900 30016G24KT P6SM SKC
     FM050100 32012KT P6SM SKC
     FM050700 30005KT P6SM SCT150
     FM051400 30003KT P6SM BKN080 OVC100=

USA.gov is the U.S. government's official web portal to all federal, state and local government web resources and services.